Main page
METAR-TAF:

METAR-TAF

Airports :

Simón Bolívar International Airport

Caracas, Venezuela

latitude: 10-36N, longitude: 066-59W, elevation: 43 m

Current weather observation

The report was made 28 minutes ago, at 13:00 UTC
Wind 5 kt from the East
Temperature 26°C
Humidity 84%
Pressure 1013 hPa
Visibility 10 km or more
Broken clouds at a height of 1600 ft

METAR: SVMI 201300Z 09005KT 9999 BKN016 26/23 Q1013

Time: 09:28 (13:28 UTC)

Forecast

The report was made 3 hours and 28 minutes ago, at 10:00 UTC
Forecast valid from 20 at 12 UTC to 21 at 12 UTC
Wind kt from the North
Visibility 10 km or more
Broken clouds at a height of 1600 ft
Temporary
from 20 at 12 UTC to 20 at 16 UTC
Wind 10 kt from the East
Scattered clouds at a height of 1600 ft

TAF: SVMI 201000Z 2012/2112 00000KT 9999 BKN016 TX24/19Z TN22/09Z TEMPO 2012/2016 08010KT SCT016

Weather observations and forecasts of more than 4000 airports (METAR and TAF reports).

The available stations are represented by yellow and red dots on the map.

Hover mouse over dot to see the name of the station.

Then click to see weather observations and forecasts.

To change the map : click on the green buttons with a black cross to zoom in, on the green button with a dash to zoom out, or on the green arrows for adjacent maps.


METAR-TAF: